Terminal Aerodrome Forecast
Issued by NWS

Home | Current Version | Previous Version | Text Only | Print | Product List | Glossary On
Versions: 1 2 3 4 5 6 7 8 9 10 11 12 13 14 15 16 17 18 19
000
FTUS44 KTSA 231700 RRA
TAFFYV
TAF
KFYV 231745Z 2318/2418 17011G18KT P6SM BKN015 BKN025
     FM232300 21012G19KT P6SM BKN025
     FM240200 29015G24KT P6SM VCTS SCT018 BKN025CB
      TEMPO 2402/2405 4SM -TSRA BR BKN018CB
     FM240600 31014G19KT P6SM BKN025
     FM240900 30013KT P6SM SCT035
     FM241200 28011KT P6SM SKC=

USA.gov is the U.S. government's official web portal to all federal, state and local government web resources and services.